Glocester, Rhode Island
Current Conditions -  °F | °C
As of 5:55 AM on Thursday 27 Nov 2014 (Local Time) from KSFZ Reporting Station
Few Clouds Few Clouds  
Wind Chill: 23°   Ceiling: Unl
Heat Index: 30°   Visibility: 10mi
Dew Point: 23°   Wind: 8mph
Humidity: 75%   Direction: 310°NW
Pressure: 29.82"   Gusts: NA
Location:  41.8875°N, 71.5975°W
Report Text: KSFZ 271055Z 31007KT 10SM FEW055 M01/M05 A2982 RMK AO1 P0003
Loading
Personal Weather Stations






























Interactive Weather Map New forecast layout! Learn more

10-Day Weather Forecast

Advertisements
Track Severe Weather on mobile